BIHN

Hornafjordur Airport

Hornafjordur, Iceland
TAF BIHN 171621Z 1717/1802 34008KT 9000 -SN FEW008 BKN011 OVC020 TEMPO 1717/1722 3000 SN BKN006 OVC011
Issued Valid From Valid To
Jan-17 @ 16:21 UTC
(7 hours ago)
Jan-17 @ 17:00 UTC
(6 hours ago)
Jan-18 @ 02:00 UTC
(in 3 hours)
Jan-17 @ 17:00 to Jan-18 @ 02:00
TAF BIHN 171621Z 1717/1802 34008KT 9000 -SN FEW008 BKN011 OVC020
Wind Visibility Clouds Conditions
340° at 8 knots 8,996 meters
  • Few at 800' AGL
  • Broken at 1,100' AGL
  • Overcast at 2,000' AGL
  • Light Snow
Expired Click to View Jan-17 @ 17:00 to Jan-17 @ 22:00
TEMPO 1717/1722 3000 SN BKN006 OVC011
Visibility Clouds Conditions
2,993 meters
  • Broken at 600' AGL
  • Overcast at 1,100' AGL
  • Snow
TAF BIHN 171621Z 1717/1802 34008KT 9000 -SN FEW008 BKN011 OVC020 TEMPO 1717/1722 3000 SN BKN006 OVC011
Issued Jan-17 @ 16:21 UTC
(7 hours ago)
Valid From Jan-17 @ 17:00 UTC
(6 hours ago)
Valid To Jan-18 @ 02:00 UTC
(in 3 hours)
Jan-17 @ 17:00 - Jan-18 @ 02:00
Wind Visibility
340° at 8 knots 8,996 meters
Clouds
  • Few at 800' AGL
  • Broken at 1,100' AGL
  • Overcast at 2,000' AGL
Conditions
  • Light Snow
Jan-17 @ 17:00 - Jan-17 @ 22:00
Clouds
  • Broken at 600' AGL
  • Overcast at 1,100' AGL
Conditions
  • Snow